Time;durP1;ratioP1;P1;durP2;ratioP2;P2;SDS_P1;SDS_P2;PMS_P1;PMS_P2;Temp;Humidity;BMP_temperature;BMP_pressure;BME280_temperature;BME280_humidity;BME280_pressure;Samples;Min_cycle;Max_cycle;Signal;HPM_P1;HPM_P2
2022/07/01 00:02:04;;;;;;;;;;;14.70;99.90;;;;;;4776328;29;19925;-70
2022/07/01 00:04:30;;;;;;;;;;;14.60;99.90;;;;;;4792593;29;20024;-71
2022/07/01 00:06:56;;;;;;;;;;;14.70;99.90;;;;;;4791733;29;20006;-71
2022/07/01 00:09:21;;;;;;;;;;;14.70;99.90;;;;;;4792346;29;20278;-70
2022/07/01 00:11:47;;;;;;;;;;;14.70;99.90;;;;;;4808728;29;19936;-71
2022/07/01 00:14:13;;;;;;;;;;;14.80;99.90;;;;;;4791516;29;19929;-72
2022/07/01 00:16:38;;;;;;;;;;;14.80;99.90;;;;;;4790753;29;19925;-71
2022/07/01 00:19:04;;;;;;;;;;;14.80;99.90;;;;;;4801617;29;20341;-70
2022/07/01 00:21:30;;;;;;;;;;;14.80;99.90;;;;;;4803523;29;19972;-70
2022/07/01 00:23:55;;;;;;;;;;;14.80;99.90;;;;;;4804277;29;19925;-71
2022/07/01 00:26:21;;;;;;;;;;;14.70;99.90;;;;;;4799633;29;20459;-71
2022/07/01 00:28:46;;;;;;;;;;;14.70;99.90;;;;;;4781646;29;20012;-71
2022/07/01 00:31:12;;;;;;;;;;;14.70;99.90;;;;;;4788479;29;19925;-71
2022/07/01 00:33:37;;;;;;;;;;;14.80;99.90;;;;;;4787609;29;20503;-73
2022/07/01 00:39:44;;;;;;;;;;;14.80;99.90;;;;;;4788972;30;19985;-72
2022/07/01 00:42:09;;;;;;;;;;;14.80;99.90;;;;;;4787788;30;19936;-72
2022/07/01 00:44:35;;;;;;;;;;;14.80;99.90;;;;;;4786927;30;19925;-71
2022/07/01 00:47:02;;;;;;;;;;;14.80;99.90;;;;;;4786479;29;20008;-71
2022/07/01 00:49:28;;;;;;;;;;;14.80;99.90;;;;;;4786739;29;19926;-71
2022/07/01 00:51:54;;;;;;;;;;;14.80;99.90;;;;;;4773837;30;19929;-72
2022/07/01 00:54:20;;;;;;;;;;;14.80;99.90;;;;;;4788182;30;20063;-73
2022/07/01 00:56:46;;;;;;;;;;;14.80;99.90;;;;;;4786211;29;19948;-71
2022/07/01 00:59:12;;;;;;;;;;;14.70;99.90;;;;;;4789067;29;19929;-72
2022/07/01 01:01:37;;;;;;;;;;;14.70;99.90;;;;;;4788209;30;19925;-71
2022/07/01 01:04:03;;;;;;;;;;;14.70;99.90;;;;;;4785548;29;19926;-71
2022/07/01 01:06:29;;;;;;;;;;;14.70;99.90;;;;;;4772157;30;19925;-72
2022/07/01 01:08:54;;;;;;;;;;;14.60;99.90;;;;;;4770256;30;19930;-71
2022/07/01 01:11:20;;;;;;;;;;;14.60;99.90;;;;;;4771559;30;19926;-70
2022/07/01 01:13:46;;;;;;;;;;;14.70;99.90;;;;;;4785611;29;19929;-69
2022/07/01 01:16:16;;;;;;;;;;;14.60;99.90;;;;;;4791558;29;19940;-70
2022/07/01 01:18:41;;;;;;;;;;;14.60;99.90;;;;;;4787603;29;20024;-72
2022/07/01 01:21:07;;;;;;;;;;;14.60;99.90;;;;;;4787824;30;20086;-72
2022/07/01 01:23:32;;;;;;;;;;;14.50;99.90;;;;;;4788046;29;19925;-70
2022/07/01 01:25:58;;;;;;;;;;;14.60;99.90;;;;;;4788454;29;19925;-71
2022/07/01 01:28:24;;;;;;;;;;;14.50;99.90;;;;;;4787705;29;19925;-71
2022/07/01 01:30:50;;;;;;;;;;;14.50;99.90;;;;;;4787354;30;19925;-70
2022/07/01 01:33:15;;;;;;;;;;;14.60;99.90;;;;;;4787459;29;20303;-70
2022/07/01 01:35:41;;;;;;;;;;;14.60;99.90;;;;;;4802850;29;19933;-71
2022/07/01 01:38:06;;;;;;;;;;;14.50;99.90;;;;;;4787947;30;20345;-71
2022/07/01 01:40:31;;;;;;;;;;;14.50;99.90;;;;;;4803035;29;19936;-72
2022/07/01 01:42:57;;;;;;;;;;;14.50;99.90;;;;;;4788339;29;19925;-69
2022/07/01 01:45:23;;;;;;;;;;;14.50;99.90;;;;;;4783541;29;19951;-71
2022/07/01 01:47:48;;;;;;;;;;;14.50;99.90;;;;;;4778410;30;19925;-72
2022/07/01 01:50:14;;;;;;;;;;;14.50;99.90;;;;;;4795283;29;19926;-71
2022/07/01 01:52:42;;;;;;;;;;;14.50;99.90;;;;;;4788194;30;20027;-73
2022/07/01 01:55:08;;;;;;;;;;;14.50;99.90;;;;;;4787288;30;19933;-71
2022/07/01 01:57:34;;;;;;;;;;;14.50;99.90;;;;;;4787474;30;19980;-72
2022/07/01 01:59:59;;;;;;;;;;;14.60;99.90;;;;;;4800096;29;19972;-70
2022/07/01 02:02:25;;;;;;;;;;;14.50;99.90;;;;;;4796108;29;19925;-71
2022/07/01 02:04:51;;;;;;;;;;;14.50;99.90;;;;;;4788066;29;19993;-71
2022/07/01 02:07:16;;;;;;;;;;;14.50;99.90;;;;;;4786663;29;19954;-72
2022/07/01 02:09:42;;;;;;;;;;;14.60;99.90;;;;;;4801615;29;19978;-70
2022/07/01 02:12:07;;;;;;;;;;;14.50;99.90;;;;;;4787175;29;19925;-73
2022/07/01 02:14:34;;;;;;;;;;;14.50;99.90;;;;;;4802304;29;19933;-70
2022/07/01 02:17:00;;;;;;;;;;;14.50;99.90;;;;;;4781099;30;20399;-71
2022/07/01 02:19:26;;;;;;;;;;;14.50;99.90;;;;;;4784240;29;20013;-72
2022/07/01 02:21:51;;;;;;;;;;;14.60;99.90;;;;;;4772456;30;19932;-70
2022/07/01 02:24:17;;;;;;;;;;;14.60;99.90;;;;;;4802537;29;20370;-70
2022/07/01 02:26:42;;;;;;;;;;;14.60;99.90;;;;;;4788763;29;19964;-70
2022/07/01 02:29:08;;;;;;;;;;;14.60;99.90;;;;;;4805228;29;19925;-72
2022/07/01 02:31:33;;;;;;;;;;;14.60;99.90;;;;;;4784517;29;20424;-69
2022/07/01 02:33:59;;;;;;;;;;;14.60;99.90;;;;;;4772774;30;19925;-71
2022/07/01 02:36:24;;;;;;;;;;;14.60;99.90;;;;;;4788341;30;19926;-71
2022/07/01 02:38:50;;;;;;;;;;;14.60;99.90;;;;;;4775251;29;19931;-72
2022/07/01 02:41:15;;;;;;;;;;;14.60;99.90;;;;;;4789886;29;19954;-72
2022/07/01 02:43:41;;;;;;;;;;;14.60;99.90;;;;;;4788740;29;20011;-71
2022/07/01 02:46:06;;;;;;;;;;;14.60;99.90;;;;;;4786935;29;19925;-72
2022/07/01 02:48:32;;;;;;;;;;;14.60;99.90;;;;;;4788823;29;19925;-70
2022/07/01 02:50:57;;;;;;;;;;;14.60;99.90;;;;;;4805874;29;20012;-73
2022/07/01 02:53:23;;;;;;;;;;;14.60;99.90;;;;;;4789793;29;19932;-72
2022/07/01 02:55:48;;;;;;;;;;;14.60;99.90;;;;;;4803363;29;20348;-71
2022/07/01 02:58:14;;;;;;;;;;;14.50;99.90;;;;;;4790031;29;19925;-73
2022/07/01 03:00:39;;;;;;;;;;;14.60;99.90;;;;;;4802321;29;20042;-71
2022/07/01 03:03:05;;;;;;;;;;;14.60;99.90;;;;;;4782294;29;19932;-71
2022/07/01 03:05:30;;;;;;;;;;;14.60;99.90;;;;;;4774372;29;20374;-73
2022/07/01 03:07:56;;;;;;;;;;;14.60;99.90;;;;;;4789932;29;19925;-71
2022/07/01 03:10:21;;;;;;;;;;;14.60;99.90;;;;;;4789522;29;19979;-71
2022/07/01 03:12:47;;;;;;;;;;;14.60;99.90;;;;;;4788651;29;19942;-73
2022/07/01 03:15:13;;;;;;;;;;;14.60;99.90;;;;;;4789002;29;19933;-70
2022/07/01 03:17:39;;;;;;;;;;;14.60;99.90;;;;;;4802600;29;20252;-72
2022/07/01 03:20:09;;;;;;;;;;;14.60;99.90;;;;;;4789951;29;19925;-70
2022/07/01 03:22:35;;;;;;;;;;;14.60;99.90;;;;;;4789044;29;19929;-71
2022/07/01 03:28:17;;;;;;;;;;;14.50;99.90;;;;;;4776177;29;20008;-73
2022/07/01 03:30:43;;;;;;;;;;;14.50;99.90;;;;;;4771502;30;20359;-70
2022/07/01 03:33:10;;;;;;;;;;;14.40;99.90;;;;;;4787431;29;19921;-70
2022/07/01 03:36:12;;;;;;;;;;;14.40;99.90;;;;;;4786295;30;20010;-70
2022/07/01 03:38:37;;;;;;;;;;;14.70;99.90;;;;;;4786167;30;19921;-72
2022/07/01 03:41:36;;;;;;;;;;;14.40;99.90;;;;;;4786318;29;20299;-69
2022/07/01 03:44:27;;;;;;;;;;;14.30;99.90;;;;;;4794892;29;20352;-71
2022/07/01 03:47:42;;;;;;;;;;;14.30;99.90;;;;;;4774178;30;19971;-70
2022/07/01 03:50:11;;;;;;;;;;;14.30;99.90;;;;;;4771233;30;19926;-71
2022/07/01 03:55:49;;;;;;;;;;;14.20;99.90;;;;;;4775074;29;19928;-70
2022/07/01 03:58:15;;;;;;;;;;;14.20;99.90;;;;;;4771801;29;19921;-72
2022/07/01 04:00:41;;;;;;;;;;;14.20;99.90;;;;;;4791856;29;19925;-73
2022/07/01 04:03:07;;;;;;;;;;;14.20;99.90;;;;;;4791588;29;20381;-74
2022/07/01 04:05:59;;;;;;;;;;;14.20;99.90;;;;;;4783066;29;19936;-71
2022/07/01 04:08:56;;;;;;;;;;;14.10;99.90;;;;;;4789091;29;19932;-71
2022/07/01 04:11:56;;;;;;;;;;;14.10;99.90;;;;;;4798928;29;19985;-72
2022/07/01 04:14:49;;;;;;;;;;;14.10;99.90;;;;;;4791468;29;20028;-71
2022/07/01 04:17:15;;;;;;;;;;;14.50;99.90;;;;;;4791565;29;19979;-71
2022/07/01 04:19:40;;;;;;;;;;;14.10;99.90;;;;;;4789136;29;19929;-72
2022/07/01 04:24:50;;;;;;;;;;;14.20;99.90;;;;;;4787188;29;19934;-72
2022/07/01 04:27:16;;;;;;;;;;;14.10;99.90;;;;;;4801747;29;19925;-71
2022/07/01 04:29:41;;;;;;;;;;;14.10;99.90;;;;;;4783409;29;19951;-70
2022/07/01 04:32:07;;;;;;;;;;;14.10;99.90;;;;;;4784851;30;20287;-71
2022/07/01 04:34:32;;;;;;;;;;;14.10;99.90;;;;;;4771201;30;19952;-71
2022/07/01 04:36:58;;;;;;;;;;;14.10;99.90;;;;;;4771013;30;20021;-71
2022/07/01 04:39:24;;;;;;;;;;;14.20;99.90;;;;;;4787516;29;19932;-72
2022/07/01 04:42:01;;;;;;;;;;;14.10;99.90;;;;;;4790135;29;19925;-69
2022/07/01 04:44:28;;;;;;;;;;;14.10;99.90;;;;;;4784722;30;19934;-71
2022/07/01 04:46:53;;;;;;;;;;;14.20;99.90;;;;;;4755398;30;19930;-71
2022/07/01 04:49:19;;;;;;;;;;;14.20;99.90;;;;;;4771044;30;19932;-72
2022/07/01 04:51:44;;;;;;;;;;;14.20;99.90;;;;;;4778915;30;20299;-72
2022/07/01 04:54:10;;;;;;;;;;;14.20;99.90;;;;;;4788725;29;19925;-69
2022/07/01 04:56:36;;;;;;;;;;;14.20;99.90;;;;;;4803832;29;19930;-71
2022/07/01 04:59:02;;;;;;;;;;;14.40;99.90;;;;;;4798514;29;20043;-73
2022/07/01 05:01:30;;;;;;;;;;;14.10;99.90;;;;;;4777771;29;19925;-73
2022/07/01 05:03:56;;;;;;;;;;;14.10;99.90;;;;;;4802502;29;19925;-72
2022/07/01 05:06:22;;;;;;;;;;;14.20;99.90;;;;;;4803823;29;20016;-71
2022/07/01 05:08:47;;;;;;;;;;;14.20;99.90;;;;;;4801054;29;19932;-72
2022/07/01 05:11:13;;;;;;;;;;;14.20;99.90;;;;;;4802916;29;20040;-71
2022/07/01 05:13:38;;;;;;;;;;;14.20;99.90;;;;;;4791038;29;19961;-70
2022/07/01 05:16:04;;;;;;;;;;;14.20;99.90;;;;;;4779368;29;19925;-72
2022/07/01 05:23:58;;;;;;;;;;;14.30;99.90;;;;;;4779628;30;19936;-72
2022/07/01 05:26:25;;;;;;;;;;;14.30;99.90;;;;;;4771187;30;19925;-72
2022/07/01 05:28:53;;;;;;;;;;;14.30;99.90;;;;;;4788165;29;20298;-70
2022/07/01 05:31:18;;;;;;;;;;;14.40;99.90;;;;;;4795644;29;19925;-70
2022/07/01 05:33:44;;;;;;;;;;;14.40;99.90;;;;;;4782963;29;20333;-72
2022/07/01 05:36:10;;;;;;;;;;;14.40;99.90;;;;;;4784309;29;20015;-70
2022/07/01 05:38:36;;;;;;;;;;;14.40;99.90;;;;;;4783218;29;19925;-69
2022/07/01 05:41:02;;;;;;;;;;;14.50;99.90;;;;;;4782215;29;19932;-69
2022/07/01 05:43:29;;;;;;;;;;;14.50;99.90;;;;;;4801206;29;19925;-75
2022/07/01 05:45:55;;;;;;;;;;;14.50;99.90;;;;;;4787420;29;19975;-73
2022/07/01 05:48:21;;;;;;;;;;;14.50;99.90;;;;;;4769133;30;19983;-72
2022/07/01 05:50:47;;;;;;;;;;;14.50;99.90;;;;;;4786127;29;19963;-72
2022/07/01 05:53:13;;;;;;;;;;;14.50;99.90;;;;;;4790353;29;20309;-71
2022/07/01 05:55:39;;;;;;;;;;;14.50;99.90;;;;;;4789167;29;19986;-71
2022/07/01 05:58:08;;;;;;;;;;;14.60;99.90;;;;;;4781362;29;19933;-75
2022/07/01 06:00:34;;;;;;;;;;;14.60;99.90;;;;;;4775309;29;20012;-73
2022/07/01 06:02:59;;;;;;;;;;;15.00;99.90;;;;;;4786417;29;20020;-73
2022/07/01 06:05:24;;;;;;;;;;;14.70;99.90;;;;;;4802246;29;19925;-70
2022/07/01 06:07:50;;;;;;;;;;;14.70;99.90;;;;;;4793478;29;19925;-74
2022/07/01 06:10:16;;;;;;;;;;;14.70;99.90;;;;;;4777702;30;19926;-73
2022/07/01 06:12:41;;;;;;;;;;;14.70;99.90;;;;;;4769177;30;19952;-74
2022/07/01 06:15:07;;;;;;;;;;;14.60;99.90;;;;;;4781448;29;19932;-73
2022/07/01 06:17:36;;;;;;;;;;;14.80;99.90;;;;;;4787038;29;20062;-71
2022/07/01 06:20:02;;;;;;;;;;;14.80;99.90;;;;;;4784459;29;19929;-71
2022/07/01 06:22:27;;;;;;;;;;;14.80;99.90;;;;;;4801451;29;19929;-70
2022/07/01 06:24:53;;;;;;;;;;;14.90;99.90;;;;;;4786969;29;19978;-71
2022/07/01 06:27:18;;;;;;;;;;;14.90;99.90;;;;;;4788171;30;20284;-71
2022/07/01 06:29:45;;;;;;;;;;;14.90;99.90;;;;;;4786222;29;19932;-72
2022/07/01 06:32:11;;;;;;;;;;;14.90;99.90;;;;;;4786193;29;19925;-74
2022/07/01 06:34:36;;;;;;;;;;;14.90;99.90;;;;;;4787307;29;20348;-70
2022/07/01 06:37:03;;;;;;;;;;;14.90;99.90;;;;;;4770165;30;19983;-71
2022/07/01 06:39:29;;;;;;;;;;;14.90;99.90;;;;;;4784010;29;19932;-71
2022/07/01 06:41:54;;;;;;;;;;;15.00;99.90;;;;;;4768932;30;20012;-72
2022/07/01 06:44:20;;;;;;;;;;;15.00;99.90;;;;;;4783727;29;19925;-72
2022/07/01 06:46:46;;;;;;;;;;;14.90;99.90;;;;;;4788782;29;19929;-72
2022/07/01 06:49:11;;;;;;;;;;;14.80;99.90;;;;;;4785783;30;20051;-72
2022/07/01 06:51:37;;;;;;;;;;;14.90;99.90;;;;;;4786981;29;19926;-72
2022/07/01 06:54:02;;;;;;;;;;;14.90;99.90;;;;;;4786060;29;19932;-72
2022/07/01 06:56:28;;;;;;;;;;;14.90;99.90;;;;;;4784876;30;19925;-71
2022/07/01 06:58:54;;;;;;;;;;;14.90;99.90;;;;;;4801384;29;19925;-71
2022/07/01 07:01:27;;;;;;;;;;;15.00;99.90;;;;;;4802056;29;19944;-74
2022/07/01 07:03:53;;;;;;;;;;;14.90;99.90;;;;;;4792537;29;19929;-67
2022/07/01 07:06:18;;;;;;;;;;;14.90;99.90;;;;;;4783687;29;20137;-71
2022/07/01 07:08:44;;;;;;;;;;;14.90;99.90;;;;;;4769026;30;20391;-69
2022/07/01 07:11:09;;;;;;;;;;;14.90;99.90;;;;;;4768765;30;19965;-70
2022/07/01 07:13:35;;;;;;;;;;;14.90;99.90;;;;;;4783811;30;20302;-71
2022/07/01 07:16:01;;;;;;;;;;;15.00;99.90;;;;;;4783512;29;20461;-71
2022/07/01 07:18:27;;;;;;;;;;;15.00;99.90;;;;;;4768487;30;19973;-72
2022/07/01 07:20:52;;;;;;;;;;;15.00;99.90;;;;;;4792045;29;20012;-71
2022/07/01 07:23:18;;;;;;;;;;;15.10;99.90;;;;;;4786848;29;20338;-72
2022/07/01 07:25:43;;;;;;;;;;;15.20;99.90;;;;;;4786999;30;19925;-71
2022/07/01 07:28:09;;;;;;;;;;;15.20;99.90;;;;;;4786770;29;19925;-71
2022/07/01 07:30:34;;;;;;;;;;;15.30;99.90;;;;;;4786807;30;19925;-70
2022/07/01 07:33:00;;;;;;;;;;;15.40;99.90;;;;;;4787078;29;19934;-71
2022/07/01 07:35:25;;;;;;;;;;;15.50;99.90;;;;;;4789754;29;19925;-73
2022/07/01 07:37:51;;;;;;;;;;;15.70;99.90;;;;;;4774570;30;20461;-73
2022/07/01 07:40:19;;;;;;;;;;;15.80;99.90;;;;;;4790180;29;19925;-72
2022/07/01 07:42:46;;;;;;;;;;;16.00;99.90;;;;;;4785367;30;19934;-71
2022/07/01 07:45:12;;;;;;;;;;;16.10;99.90;;;;;;4781343;29;19929;-72
2022/07/01 07:47:38;;;;;;;;;;;16.30;99.90;;;;;;4776434;30;19973;-70
2022/07/01 07:50:04;;;;;;;;;;;16.30;99.90;;;;;;4772396;30;19926;-73
2022/07/01 07:52:29;;;;;;;;;;;16.50;99.90;;;;;;4772217;29;19932;-72
2022/07/01 07:54:55;;;;;;;;;;;16.60;99.90;;;;;;4772183;30;19929;-71
2022/07/01 07:57:20;;;;;;;;;;;16.80;99.90;;;;;;4772731;30;19926;-73
2022/07/01 07:59:46;;;;;;;;;;;16.90;99.90;;;;;;4771975;30;19929;-71
2022/07/01 08:02:12;;;;;;;;;;;16.90;99.90;;;;;;4771242;30;19930;-71
2022/07/01 08:04:37;;;;;;;;;;;16.90;99.90;;;;;;4775847;30;19925;-72
2022/07/01 08:07:03;;;;;;;;;;;17.00;99.90;;;;;;4786768;29;19932;-71
2022/07/01 08:09:28;;;;;;;;;;;17.20;99.90;;;;;;4778512;30;19999;-70
2022/07/01 08:11:54;;;;;;;;;;;17.40;99.90;;;;;;4784418;29;19933;-70
2022/07/01 08:14:20;;;;;;;;;;;17.50;99.90;;;;;;4777672;29;20016;-70
2022/07/01 08:16:45;;;;;;;;;;;17.60;99.90;;;;;;4782333;29;19925;-73
2022/07/01 08:19:11;;;;;;;;;;;17.70;99.90;;;;;;4803197;29;20009;-72
2022/07/01 08:21:36;;;;;;;;;;;17.70;99.90;;;;;;4807319;29;20015;-71
2022/07/01 08:24:02;;;;;;;;;;;17.70;99.90;;;;;;4801381;29;19925;-71
2022/07/01 08:26:27;;;;;;;;;;;17.80;99.90;;;;;;4774449;30;19926;-72
2022/07/01 08:28:53;;;;;;;;;;;17.90;99.90;;;;;;4771207;30;19926;-72
2022/07/01 08:31:18;;;;;;;;;;;17.90;99.90;;;;;;4770947;30;20005;-70
2022/07/01 08:33:44;;;;;;;;;;;18.00;99.90;;;;;;4770538;30;19949;-69
2022/07/01 08:36:09;;;;;;;;;;;18.00;99.90;;;;;;4771334;30;19926;-72
2022/07/01 08:38:35;;;;;;;;;;;18.10;99.90;;;;;;4783115;29;20388;-72
2022/07/01 08:41:02;;;;;;;;;;;18.10;99.90;;;;;;4787893;29;19963;-71
2022/07/01 08:43:27;;;;;;;;;;;18.20;99.90;;;;;;4790141;29;19933;-72
2022/07/01 08:45:53;;;;;;;;;;;18.30;99.90;;;;;;4789345;29;19925;-74
2022/07/01 08:48:19;;;;;;;;;;;18.40;99.90;;;;;;4787079;29;20259;-71
2022/07/01 08:50:45;;;;;;;;;;;18.30;99.90;;;;;;4774131;30;20020;-72
2022/07/01 08:53:11;;;;;;;;;;;18.30;99.90;;;;;;4773743;29;19952;-73
2022/07/01 08:58:22;;;;;;;;;;;18.20;99.90;;;;;;4786978;30;19925;-75
2022/07/01 09:00:47;;;;;;;;;;;18.30;99.90;;;;;;4788730;30;20394;-77
2022/07/01 09:03:13;;;;;;;;;;;18.30;99.90;;;;;;4788061;29;19929;-76
2022/07/01 09:05:38;;;;;;;;;;;18.40;99.90;;;;;;4788768;30;20386;-73
2022/07/01 09:08:05;;;;;;;;;;;18.40;99.90;;;;;;4788372;30;19926;-72
2022/07/01 09:10:34;;;;;;;;;;;18.50;99.90;;;;;;4788674;30;19980;-72
2022/07/01 09:13:07;;;;;;;;;;;18.60;99.90;;;;;;4771685;30;20012;-75
2022/07/01 09:15:33;;;;;;;;;;;18.60;99.90;;;;;;4781751;30;19956;-72
2022/07/01 09:18:12;;;;;;;;;;;18.50;99.90;;;;;;4790740;29;19968;-73
2022/07/01 09:20:42;;;;;;;;;;;18.50;99.90;;;;;;4787614;29;20025;-70
2022/07/01 09:23:12;;;;;;;;;;;18.60;99.90;;;;;;4796537;29;19933;-71
2022/07/01 09:25:50;;;;;;;;;;;18.70;99.90;;;;;;4785870;29;19929;-69
2022/07/01 09:28:17;;;;;;;;;;;18.60;99.90;;;;;;4784596;29;19925;-70
2022/07/01 09:30:44;;;;;;;;;;;18.50;99.90;;;;;;4776652;29;19956;-72
2022/07/01 09:33:17;;;;;;;;;;;18.50;99.90;;;;;;4781994;29;20334;-71
2022/07/01 09:35:44;;;;;;;;;;;18.70;99.90;;;;;;4797019;29;20349;-71
2022/07/01 09:38:11;;;;;;;;;;;18.80;99.90;;;;;;4779562;29;19932;-73
2022/07/01 09:40:46;;;;;;;;;;;18.80;99.90;;;;;;4781705;29;19925;-71
2022/07/01 09:43:20;;;;;;;;;;;18.90;99.90;;;;;;4782705;29;19936;-72
2022/07/01 09:45:56;;;;;;;;;;;18.70;99.90;;;;;;4785142;29;19932;-74
2022/07/01 09:48:23;;;;;;;;;;;18.90;99.90;;;;;;4780423;29;19925;-71
2022/07/01 09:50:49;;;;;;;;;;;19.10;99.90;;;;;;4792556;29;19925;-72
2022/07/01 09:53:14;;;;;;;;;;;19.30;99.90;;;;;;4780214;29;20261;-73
2022/07/01 09:55:40;;;;;;;;;;;19.40;99.90;;;;;;4779748;29;19925;-73
2022/07/01 09:58:06;;;;;;;;;;;19.60;99.90;;;;;;4781615;29;20016;-73
2022/07/01 10:00:32;;;;;;;;;;;19.60;99.90;;;;;;4796972;29;19936;-72
2022/07/01 10:02:59;;;;;;;;;;;19.50;99.90;;;;;;4789103;29;19932;-71
2022/07/01 10:05:25;;;;;;;;;;;19.10;99.90;;;;;;4783449;29;20025;-69
2022/07/01 10:08:09;;;;;;;;;;;19.50;99.90;;;;;;4798031;29;19998;-69
2022/07/01 10:10:39;;;;;;;;;;;19.90;99.90;;;;;;4785333;29;19929;-70
2022/07/01 10:13:07;;;;;;;;;;;20.10;99.90;;;;;;4797341;29;19947;-68
2022/07/01 10:15:34;;;;;;;;;;;20.10;99.90;;;;;;4782214;29;19926;-71
2022/07/01 10:17:59;;;;;;;;;;;20.20;99.90;;;;;;4789735;29;20371;-72
2022/07/01 10:20:26;;;;;;;;;;;20.10;99.90;;;;;;4786518;29;19932;-70
2022/07/01 10:22:59;;;;;;;;;;;20.00;99.90;;;;;;4794381;29;19981;-71
2022/07/01 10:25:40;;;;;;;;;;;19.90;99.90;;;;;;4789447;29;19925;-71
2022/07/01 10:28:23;;;;;;;;;;;19.80;99.90;;;;;;4790167;29;19975;-72
2022/07/01 10:30:50;;;;;;;;;;;19.70;99.90;;;;;;4774116;30;19929;-70
2022/07/01 10:33:27;;;;;;;;;;;19.70;99.90;;;;;;4771520;30;19926;-70
2022/07/01 10:35:53;;;;;;;;;;;20.00;99.90;;;;;;4788436;29;19984;-70
2022/07/01 10:38:18;;;;;;;;;;;20.30;99.90;;;;;;4772129;30;19925;-73
2022/07/01 10:40:46;;;;;;;;;;;20.60;99.90;;;;;;4772381;30;19958;-71
2022/07/01 10:43:14;;;;;;;;;;;20.40;99.90;;;;;;4780422;29;19925;-70
2022/07/01 10:45:43;;;;;;;;;;;20.30;99.90;;;;;;4801462;29;19926;-71
2022/07/01 10:48:22;;;;;;;;;;;20.20;99.90;;;;;;4785224;29;19925;-71
2022/07/01 10:50:49;;;;;;;;;;;20.10;99.90;;;;;;4789891;29;19925;-70
2022/07/01 10:53:15;;;;;;;;;;;20.00;99.90;;;;;;4789795;29;20283;-71
2022/07/01 10:55:43;;;;;;;;;;;19.90;99.90;;;;;;4790247;29;19932;-73
2022/07/01 10:58:09;;;;;;;;;;;20.30;99.90;;;;;;4804915;29;19948;-72
2022/07/01 11:00:35;;;;;;;;;;;20.60;99.90;;;;;;4804218;29;19925;-71
2022/07/01 11:03:08;;;;;;;;;;;20.90;99.90;;;;;;4795280;29;19933;-72
2022/07/01 11:05:34;;;;;;;;;;;21.10;99.90;;;;;;4771923;30;20360;-70
2022/07/01 11:07:59;;;;;;;;;;;21.20;99.90;;;;;;4787799;30;19932;-70
2022/07/01 11:10:25;;;;;;;;;;;21.00;99.90;;;;;;4787551;29;19925;-71
2022/07/01 11:12:51;;;;;;;;;;;20.90;99.90;;;;;;4792461;29;19925;-71
2022/07/01 11:15:17;;;;;;;;;;;20.80;99.90;;;;;;4809783;29;19960;-72
2022/07/01 11:17:48;;;;;;;;;;;20.70;99.90;;;;;;4796976;29;20271;-71
2022/07/01 11:20:14;;;;;;;;;;;20.90;99.90;;;;;;4775544;29;19930;-68
2022/07/01 11:22:39;;;;;;;;;;;21.10;99.90;;;;;;4775339;30;19975;-69
2022/07/01 11:25:06;;;;;;;;;;;21.40;99.90;;;;;;4791304;29;19965;-71
2022/07/01 11:27:32;;;;;;;;;;;21.70;99.90;;;;;;4797283;29;19930;-71
2022/07/01 11:30:04;;;;;;;;;;;21.80;99.90;;;;;;4783261;29;19931;-71
2022/07/01 11:32:32;;;;;;;;;;;22.00;99.90;;;;;;4802681;29;20298;-72
2022/07/01 11:34:59;;;;;;;;;;;22.10;99.90;;;;;;4800670;29;20008;-71
2022/07/01 11:40:14;;;;;;;;;;;22.10;99.90;;;;;;4787625;29;20015;-70
2022/07/01 11:42:40;;;;;;;;;;;22.10;99.90;;;;;;4792250;29;19991;-72
2022/07/01 11:45:05;;;;;;;;;;;22.00;99.90;;;;;;4791569;29;20378;-69
2022/07/01 11:47:31;;;;;;;;;;;21.70;99.90;;;;;;4792255;29;19931;-70
2022/07/01 11:49:57;;;;;;;;;;;21.40;99.90;;;;;;4808522;29;20309;-72
2022/07/01 11:52:23;;;;;;;;;;;21.30;99.90;;;;;;4792327;29;19926;-72
2022/07/01 11:54:50;;;;;;;;;;;21.30;99.90;;;;;;4809094;29;19974;-71
2022/07/01 11:57:16;;;;;;;;;;;21.30;99.90;;;;;;4808014;29;19997;-70
2022/07/01 11:59:42;;;;;;;;;;;21.30;99.90;;;;;;4807029;29;20383;-71
2022/07/01 12:02:09;;;;;;;;;;;21.40;99.90;;;;;;4782538;29;19925;-71
2022/07/01 12:04:34;;;;;;;;;;;21.40;99.90;;;;;;4782941;29;19975;-71
2022/07/01 12:07:00;;;;;;;;;;;21.50;99.90;;;;;;4782283;29;19965;-72
2022/07/01 12:09:26;;;;;;;;;;;21.30;99.90;;;;;;4799124;29;20380;-70
2022/07/01 12:11:52;;;;;;;;;;;21.20;99.90;;;;;;4784869;29;19929;-70
2022/07/01 12:14:25;;;;;;;;;;;21.30;99.90;;;;;;4767492;29;19956;-71
2022/07/01 12:16:51;;;;;;;;;;;21.40;99.90;;;;;;4799002;29;20307;-71
2022/07/01 12:19:17;;;;;;;;;;;21.70;99.90;;;;;;4783458;29;19925;-71
2022/07/01 12:21:53;;;;;;;;;;;21.70;99.90;;;;;;4792781;29;19940;-71
2022/07/01 12:24:21;;;;;;;;;;;21.80;99.90;;;;;;4792489;29;20291;-71
2022/07/01 12:27:02;;;;;;;;;;;21.60;99.90;;;;;;4794080;29;20353;-71
2022/07/01 12:29:47;;;;;;;;;;;21.50;99.90;;;;;;4800851;29;20363;-72
2022/07/01 12:32:14;;;;;;;;;;;21.40;99.90;;;;;;4796073;29;20364;-71
2022/07/01 12:34:42;;;;;;;;;;;21.70;99.90;;;;;;4798842;29;19926;-70
2022/07/01 12:37:11;;;;;;;;;;;21.60;99.90;;;;;;4773645;29;19925;-70
2022/07/01 12:39:47;;;;;;;;;;;21.50;99.90;;;;;;4774097;30;20290;-71
2022/07/01 12:42:23;;;;;;;;;;;21.50;99.90;;;;;;4800214;29;19929;-70
2022/07/01 12:44:49;;;;;;;;;;;21.30;99.90;;;;;;4806752;29;20303;-70
2022/07/01 12:47:33;;;;;;;;;;;21.20;99.90;;;;;;4800407;29;19929;-71
2022/07/01 12:50:09;;;;;;;;;;;21.10;99.90;;;;;;4798891;29;19940;-71
2022/07/01 12:52:35;;;;;;;;;;;20.90;99.90;;;;;;4784054;29;19925;-71
2022/07/01 12:55:00;;;;;;;;;;;20.80;99.90;;;;;;4780800;29;19932;-71
2022/07/01 12:57:32;;;;;;;;;;;20.80;99.90;;;;;;4786842;29;20287;-70
2022/07/01 12:59:58;;;;;;;;;;;20.80;99.90;;;;;;4807667;29;19925;-69
2022/07/01 13:02:24;;;;;;;;;;;20.90;99.90;;;;;;4806952;29;20436;-69
2022/07/01 13:04:50;;;;;;;;;;;20.70;99.90;;;;;;4806072;29;19928;-69
2022/07/01 13:07:15;;;;;;;;;;;20.70;99.90;;;;;;4790433;29;19960;-68
2022/07/01 13:09:41;;;;;;;;;;;20.50;99.90;;;;;;4795749;29;19932;-68
2022/07/01 13:12:06;;;;;;;;;;;20.50;99.90;;;;;;4797799;29;19925;-70
2022/07/01 13:14:32;;;;;;;;;;;20.50;99.90;;;;;;4783447;29;19929;-69
2022/07/01 13:16:58;;;;;;;;;;;20.60;99.90;;;;;;4773084;29;19925;-71
2022/07/01 13:19:23;;;;;;;;;;;20.50;99.90;;;;;;4788267;29;19996;-71
2022/07/01 13:21:49;;;;;;;;;;;20.50;99.90;;;;;;4772207;29;19964;-70
2022/07/01 13:24:14;;;;;;;;;;;20.50;99.90;;;;;;4789385;29;19932;-71
2022/07/01 13:26:40;;;;;;;;;;;20.60;99.90;;;;;;4786408;29;19925;-71
2022/07/01 13:29:06;;;;;;;;;;;20.70;99.90;;;;;;4806143;29;20020;-70
2022/07/01 13:31:31;;;;;;;;;;;20.60;99.90;;;;;;4782515;29;20082;-70
2022/07/01 13:33:57;;;;;;;;;;;20.60;99.90;;;;;;4788898;29;19968;-70
2022/07/01 13:36:22;;;;;;;;;;;20.50;99.90;;;;;;4789382;29;19925;-71
2022/07/01 13:38:48;;;;;;;;;;;20.40;99.90;;;;;;4789682;29;19925;-69
2022/07/01 13:41:15;;;;;;;;;;;20.50;99.90;;;;;;4789049;29;19925;-70
2022/07/01 13:43:40;;;;;;;;;;;20.40;99.90;;;;;;4789271;29;19925;-70
2022/07/01 13:46:06;;;;;;;;;;;20.30;99.90;;;;;;4788780;29;19933;-71
2022/07/01 13:48:32;;;;;;;;;;;20.30;99.90;;;;;;4788701;30;20347;-71
2022/07/01 13:50:57;;;;;;;;;;;20.50;99.90;;;;;;4757994;29;19933;-71
2022/07/01 13:53:23;;;;;;;;;;;20.70;99.90;;;;;;4788355;29;19925;-71
2022/07/01 13:55:48;;;;;;;;;;;20.80;99.90;;;;;;4772688;29;19936;-71
2022/07/01 13:58:15;;;;;;;;;;;20.80;99.90;;;;;;4789069;30;20045;-70
2022/07/01 14:00:41;;;;;;;;;;;20.90;99.90;;;;;;4788680;30;19980;-71
2022/07/01 14:03:06;;;;;;;;;;;20.90;99.90;;;;;;4772155;30;19976;-70
2022/07/01 14:05:32;;;;;;;;;;;21.00;99.90;;;;;;4788985;30;20028;-70
2022/07/01 14:07:58;;;;;;;;;;;21.30;99.90;;;;;;4802977;29;19936;-70
2022/07/01 14:10:23;;;;;;;;;;;21.60;99.90;;;;;;4790675;29;19936;-71
2022/07/01 14:12:48;;;;;;;;;;;21.70;99.90;;;;;;4785755;29;19974;-70
2022/07/01 14:15:14;;;;;;;;;;;21.50;99.90;;;;;;4789059;29;20016;-71
2022/07/01 14:17:40;;;;;;;;;;;21.20;99.90;;;;;;4787856;29;19926;-72
2022/07/01 14:20:05;;;;;;;;;;;21.00;99.90;;;;;;4788491;29;20013;-71
2022/07/01 14:22:31;;;;;;;;;;;20.80;99.90;;;;;;4782400;29;19924;-71
2022/07/01 14:24:57;;;;;;;;;;;20.80;99.90;;;;;;4791525;29;19926;-70
2022/07/01 14:27:22;;;;;;;;;;;21.00;99.90;;;;;;4788907;29;19928;-70
2022/07/01 14:29:48;;;;;;;;;;;21.30;99.90;;;;;;4802530;29;19981;-69
2022/07/01 14:32:13;;;;;;;;;;;21.50;99.90;;;;;;4780719;29;19969;-70
2022/07/01 14:34:39;;;;;;;;;;;21.70;99.90;;;;;;4796496;29;19925;-70
2022/07/01 14:37:04;;;;;;;;;;;21.80;99.90;;;;;;4766767;29;20056;-71
2022/07/01 14:39:30;;;;;;;;;;;21.70;99.90;;;;;;4796227;29;20046;-71
2022/07/01 14:41:55;;;;;;;;;;;21.60;99.90;;;;;;4795191;29;19928;-71